sensor_id;sensor_type;location;lat;lon;timestamp;pressure;altitude;pressure_sealevel;temperature;humidity
7333;BME280;3707;43.618;25.342;2023-02-20T00:00:56;100215.97;;;12.79;87.17
7333;BME280;3707;43.618;25.342;2023-02-20T00:03:24;100209.91;;;12.78;88.21
7333;BME280;3707;43.618;25.342;2023-02-20T00:05:51;100130.59;;;12.31;88.09
7333;BME280;3707;43.618;25.342;2023-02-20T00:08:18;100205.56;;;12.76;88.64
7333;BME280;3707;43.618;25.342;2023-02-20T00:10:45;100202.94;;;12.76;89.34
7333;BME280;3707;43.618;25.342;2023-02-20T00:13:11;100208.13;;;12.73;89.48
7333;BME280;3707;43.618;25.342;2023-02-20T00:15:40;100212.34;;;12.59;90.59
7333;BME280;3707;43.618;25.342;2023-02-20T00:18:06;100215.75;;;12.52;91.50
7333;BME280;3707;43.618;25.342;2023-02-20T00:20:33;100221.69;;;12.41;91.68
7333;BME280;3707;43.618;25.342;2023-02-20T00:23:01;100195.66;;;12.34;92.22
7333;BME280;3707;43.618;25.342;2023-02-20T00:25:28;100180.78;;;12.24;92.58
7333;BME280;3707;43.618;25.342;2023-02-20T00:27:55;100206.84;;;12.27;93.21
7333;BME280;3707;43.618;25.342;2023-02-20T00:30:23;100180.78;;;12.22;93.92
7333;BME280;3707;43.618;25.342;2023-02-20T00:32:53;100189.44;;;12.21;94.15
7333;BME280;3707;43.618;25.342;2023-02-20T00:35:21;100210.25;;;12.24;94.08
7333;BME280;3707;43.618;25.342;2023-02-20T00:37:49;100214.63;;;12.28;93.47
7333;BME280;3707;43.618;25.342;2023-02-20T00:40:18;100189.38;;;12.17;93.27
7333;BME280;3707;43.618;25.342;2023-02-20T00:42:45;100191.00;;;12.06;93.84
7333;BME280;3707;43.618;25.342;2023-02-20T00:45:13;100171.00;;;11.97;94.03
7333;BME280;3707;43.618;25.342;2023-02-20T00:47:41;100212.81;;;12.18;93.52
7333;BME280;3707;43.618;25.342;2023-02-20T00:50:10;100177.19;;;12.08;93.78
7333;BME280;3707;43.618;25.342;2023-02-20T00:52:38;100171.06;;;12.03;94.17
7333;BME280;3707;43.618;25.342;2023-02-20T00:55:05;100195.47;;;12.17;94.03
7333;BME280;3707;43.618;25.342;2023-02-20T00:57:32;100207.59;;;12.15;95.03
7333;BME280;3707;43.618;25.342;2023-02-20T00:59:59;100208.47;;;12.16;94.54
7333;BME280;3707;43.618;25.342;2023-02-20T01:02:26;100208.38;;;12.08;95.21
7333;BME280;3707;43.618;25.342;2023-02-20T01:04:53;100217.03;;;12.10;96.04
7333;BME280;3707;43.618;25.342;2023-02-20T01:07:22;100191.72;;;11.91;97.33
7333;BME280;3707;43.618;25.342;2023-02-20T01:09:49;100212.50;;;11.91;98.15
7333;BME280;3707;43.618;25.342;2023-02-20T01:12:16;100196.03;;;11.92;97.42
7333;BME280;3707;43.618;25.342;2023-02-20T01:14:43;100217.78;;;11.97;97.69
7333;BME280;3707;43.618;25.342;2023-02-20T01:17:11;100216.03;;;11.96;97.28
7333;BME280;3707;43.618;25.342;2023-02-20T01:19:38;100220.41;;;12.00;97.35
7333;BME280;3707;43.618;25.342;2023-02-20T01:22:05;100211.59;;;11.87;96.63
7333;BME280;3707;43.618;25.342;2023-02-20T01:24:34;100217.84;;;12.06;96.40
7333;BME280;3707;43.618;25.342;2023-02-20T01:27:01;100200.25;;;11.81;97.16
7333;BME280;3707;43.618;25.342;2023-02-20T01:29:28;100219.44;;;11.90;96.83
7333;BME280;3707;43.618;25.342;2023-02-20T01:31:55;100212.50;;;11.92;96.25
7333;BME280;3707;43.618;25.342;2023-02-20T01:34:21;100208.22;;;11.95;96.33
7333;BME280;3707;43.618;25.342;2023-02-20T01:36:49;100213.41;;;11.95;95.79
7333;BME280;3707;43.618;25.342;2023-02-20T01:39:17;100217.66;;;11.88;95.95
7333;BME280;3707;43.618;25.342;2023-02-20T01:41:48;100215.97;;;11.90;96.52
7333;BME280;3707;43.618;25.342;2023-02-20T01:44:18;100124.41;;;11.41;96.64
7333;BME280;3707;43.618;25.342;2023-02-20T01:46:48;100196.88;;;11.88;96.59
7333;BME280;3707;43.618;25.342;2023-02-20T01:49:24;100203.78;;;11.86;96.78
7333;BME280;3707;43.618;25.342;2023-02-20T01:51:56;100195.16;;;11.87;97.15
7333;BME280;3707;43.618;25.342;2023-02-20T01:54:25;100203.81;;;11.89;96.29
7333;BME280;3707;43.618;25.342;2023-02-20T01:56:56;100213.31;;;11.88;96.67
7333;BME280;3707;43.618;25.342;2023-02-20T01:59:26;100202.88;;;11.82;96.87
7333;BME280;3707;43.618;25.342;2023-02-20T02:01:55;100176.69;;;11.66;96.60
7333;BME280;3707;43.618;25.342;2023-02-20T02:04:23;100211.53;;;11.84;96.24
7333;BME280;3707;43.618;25.342;2023-02-20T02:06:51;100205.44;;;11.81;96.08
7333;BME280;3707;43.618;25.342;2023-02-20T02:09:25;100203.81;;;11.89;95.51
7333;BME280;3707;43.618;25.342;2023-02-20T02:11:56;100193.25;;;11.75;95.56
7333;BME280;3707;43.618;25.342;2023-02-20T02:14:23;100215.75;;;11.75;95.97
7333;BME280;3707;43.618;25.342;2023-02-20T02:17:01;100202.78;;;11.75;96.13
7333;BME280;3707;43.618;25.342;2023-02-20T02:25:52;100230.50;;;11.76;95.08
7333;BME280;3707;43.618;25.342;2023-02-20T02:31:39;100240.72;;;11.67;96.92
7333;BME280;3707;43.618;25.342;2023-02-20T02:34:25;100224.13;;;11.54;96.83
7333;BME280;3707;43.618;25.342;2023-02-20T02:37:02;100208.38;;;11.40;96.85
7333;BME280;3707;43.618;25.342;2023-02-20T02:39:40;100253.78;;;11.70;97.00
7333;BME280;3707;43.618;25.342;2023-02-20T02:42:15;100269.19;;;11.58;97.63
7333;BME280;3707;43.618;25.342;2023-02-20T02:44:51;100248.94;;;11.34;98.99
7333;BME280;3707;43.618;25.342;2023-02-20T02:47:22;100260.38;;;11.47;99.88
7333;BME280;3707;43.618;25.342;2023-02-20T02:49:56;100254.94;;;11.30;99.72
7333;BME280;3707;43.618;25.342;2023-02-20T02:52:26;100282.75;;;11.38;100.00
7333;BME280;3707;43.618;25.342;2023-02-20T02:55:11;100267.06;;;11.31;100.00
7333;BME280;3707;43.618;25.342;2023-02-20T02:57:38;100284.53;;;11.42;99.57
7333;BME280;3707;43.618;25.342;2023-02-20T03:00:08;100280.88;;;11.28;100.00
7333;BME280;3707;43.618;25.342;2023-02-20T03:02:41;100294.75;;;11.30;100.00
7333;BME280;3707;43.618;25.342;2023-02-20T03:05:11;100264.28;;;11.20;100.00
7333;BME280;3707;43.618;25.342;2023-02-20T03:07:42;100305.06;;;11.27;100.00
7333;BME280;3707;43.618;25.342;2023-02-20T03:10:13;100286.94;;;11.29;100.00
7333;BME280;3707;43.618;25.342;2023-02-20T03:12:48;100308.50;;;11.23;100.00
7333;BME280;3707;43.618;25.342;2023-02-20T03:15:24;100285.81;;;11.12;100.00
7333;BME280;3707;43.618;25.342;2023-02-20T03:18:03;100312.81;;;11.24;100.00
7333;BME280;3707;43.618;25.342;2023-02-20T03:20:35;100312.72;;;11.18;100.00
7333;BME280;3707;43.618;25.342;2023-02-20T03:23:05;100311.97;;;11.25;100.00
7333;BME280;3707;43.618;25.342;2023-02-20T03:25:37;100320.59;;;11.23;100.00
7333;BME280;3707;43.618;25.342;2023-02-20T03:28:08;100334.38;;;11.20;100.00
7333;BME280;3707;43.618;25.342;2023-02-20T03:30:39;100326.53;;;11.16;100.00
7333;BME280;3707;43.618;25.342;2023-02-20T03:33:11;100335.06;;;11.10;100.00
7333;BME280;3707;43.618;25.342;2023-02-20T03:35:56;100345.06;;;10.87;100.00
7333;BME280;3707;43.618;25.342;2023-02-20T03:38:50;100338.22;;;10.91;100.00
7333;BME280;3707;43.618;25.342;2023-02-20T03:41:37;100350.16;;;10.84;100.00
7333;BME280;3707;43.618;25.342;2023-02-20T03:44:23;100352.50;;;10.69;100.00
7333;BME280;3707;43.618;25.342;2023-02-20T03:46:54;100348.09;;;10.65;100.00
7333;BME280;3707;43.618;25.342;2023-02-20T03:49:26;100348.78;;;10.57;100.00
7333;BME280;3707;43.618;25.342;2023-02-20T03:51:53;100348.94;;;10.63;100.00
7333;BME280;3707;43.618;25.342;2023-02-20T03:54:22;100352.31;;;10.59;100.00
7333;BME280;3707;43.618;25.342;2023-02-20T03:56:51;100342.34;;;10.36;100.00
7333;BME280;3707;43.618;25.342;2023-02-20T03:59:22;100368.38;;;10.41;100.00
7333;BME280;3707;43.618;25.342;2023-02-20T04:01:53;100363.03;;;10.33;100.00
7333;BME280;3707;43.618;25.342;2023-02-20T04:04:25;100379.38;;;10.31;100.00
7333;BME280;3707;43.618;25.342;2023-02-20T04:06:54;100358.38;;;10.17;100.00
7333;BME280;3707;43.618;25.342;2023-02-20T04:09:26;100377.53;;;10.25;100.00
7333;BME280;3707;43.618;25.342;2023-02-20T04:11:58;100368.88;;;10.23;100.00
7333;BME280;3707;43.618;25.342;2023-02-20T04:14:28;100372.47;;;10.31;100.00
7333;BME280;3707;43.618;25.342;2023-02-20T04:16:59;100331.91;;;9.93;100.00
7333;BME280;3707;43.618;25.342;2023-02-20T04:19:27;100370.28;;;10.11;100.00
7333;BME280;3707;43.618;25.342;2023-02-20T04:21:55;100381.66;;;10.16;100.00
7333;BME280;3707;43.618;25.342;2023-02-20T04:24:29;100381.75;;;10.20;100.00
7333;BME280;3707;43.618;25.342;2023-02-20T04:26:57;100377.81;;;10.00;100.00
7333;BME280;3707;43.618;25.342;2023-02-20T04:29:24;100350.03;;;9.91;100.00
7333;BME280;3707;43.618;25.342;2023-02-20T04:31:51;100346.63;;;9.94;100.00
7333;BME280;3707;43.618;25.342;2023-02-20T04:34:18;100387.78;;;10.19;100.00
7333;BME280;3707;43.618;25.342;2023-02-20T04:36:45;100392.72;;;10.10;100.00
7333;BME280;3707;43.618;25.342;2023-02-20T04:39:12;100401.41;;;10.12;100.00
7333;BME280;3707;43.618;25.342;2023-02-20T04:41:40;100392.03;;;10.16;100.00
7333;BME280;3707;43.618;25.342;2023-02-20T04:44:07;100414.31;;;10.09;100.00
7333;BME280;3707;43.618;25.342;2023-02-20T04:46:51;100396.19;;;10.09;100.00
7333;BME280;3707;43.618;25.342;2023-02-20T04:49:18;100395.13;;;10.03;100.00
7333;BME280;3707;43.618;25.342;2023-02-20T04:51:44;100410.56;;;9.96;100.00
7333;BME280;3707;43.618;25.342;2023-02-20T04:54:11;100413.25;;;10.01;100.00
7333;BME280;3707;43.618;25.342;2023-02-20T04:56:39;100413.38;;;10.07;100.00
7333;BME280;3707;43.618;25.342;2023-02-20T04:59:06;100393.25;;;9.95;100.00
7333;BME280;3707;43.618;25.342;2023-02-20T05:01:33;100406.81;;;9.84;100.00
7333;BME280;3707;43.618;25.342;2023-02-20T05:04:00;100426.84;;;9.91;100.00
7333;BME280;3707;43.618;25.342;2023-02-20T05:06:27;100430.34;;;9.93;100.00
7333;BME280;3707;43.618;25.342;2023-02-20T05:08:53;100441.56;;;9.93;100.00
7333;BME280;3707;43.618;25.342;2023-02-20T05:11:21;100447.56;;;9.91;100.00
7333;BME280;3707;43.618;25.342;2023-02-20T05:13:49;100436.41;;;9.93;100.00
7333;BME280;3707;43.618;25.342;2023-02-20T05:16:16;100433.59;;;9.84;100.00
7333;BME280;3707;43.618;25.342;2023-02-20T05:18:43;100460.34;;;9.85;100.00
7333;BME280;3707;43.618;25.342;2023-02-20T05:21:12;100445.38;;;9.72;100.00
7333;BME280;3707;43.618;25.342;2023-02-20T05:23:56;100463.88;;;9.88;100.00
7333;BME280;3707;43.618;25.342;2023-02-20T05:26:23;100472.47;;;9.86;100.00
7333;BME280;3707;43.618;25.342;2023-02-20T05:28:51;100389.13;;;9.30;100.00
7333;BME280;3707;43.618;25.342;2023-02-20T05:31:18;100472.53;;;9.89;100.00
7333;BME280;3707;43.618;25.342;2023-02-20T05:33:45;100463.28;;;9.63;100.00
7333;BME280;3707;43.618;25.342;2023-02-20T05:36:11;100486.16;;;9.80;100.00
7333;BME280;3707;43.618;25.342;2023-02-20T05:38:38;100346.81;;;8.94;100.00
7333;BME280;3707;43.618;25.342;2023-02-20T05:41:06;100489.50;;;9.76;100.00
7333;BME280;3707;43.618;25.342;2023-02-20T05:43:33;100491.16;;;9.73;100.00
7333;BME280;3707;43.618;25.342;2023-02-20T05:46:01;100504.13;;;9.74;100.00
7333;BME280;3707;43.618;25.342;2023-02-20T05:48:28;100512.75;;;9.73;100.00
7333;BME280;3707;43.618;25.342;2023-02-20T05:50:55;100525.59;;;9.70;100.00
7333;BME280;3707;43.618;25.342;2023-02-20T05:53:21;100502.88;;;9.60;100.00
7333;BME280;3707;43.618;25.342;2023-02-20T05:55:48;100516.34;;;9.80;100.00
7333;BME280;3707;43.618;25.342;2023-02-20T05:58:15;100530.19;;;9.82;100.00
7333;BME280;3707;43.618;25.342;2023-02-20T06:00:42;100517.72;;;9.66;100.00
7333;BME280;3707;43.618;25.342;2023-02-20T06:03:10;100542.25;;;9.80;100.00
7333;BME280;3707;43.618;25.342;2023-02-20T06:05:37;100508.25;;;9.66;100.00
7333;BME280;3707;43.618;25.342;2023-02-20T06:08:04;100558.88;;;9.89;100.00
7333;BME280;3707;43.618;25.342;2023-02-20T06:10:31;100573.41;;;9.83;100.00
7333;BME280;3707;43.618;25.342;2023-02-20T06:12:58;100507.69;;;9.45;100.00
7333;BME280;3707;43.618;25.342;2023-02-20T06:15:25;100583.00;;;9.87;100.00
7333;BME280;3707;43.618;25.342;2023-02-20T06:17:52;100585.44;;;9.81;100.00
7333;BME280;3707;43.618;25.342;2023-02-20T06:20:20;100578.72;;;9.87;100.00
7333;BME280;3707;43.618;25.342;2023-02-20T06:22:47;100505.84;;;9.41;100.00
7333;BME280;3707;43.618;25.342;2023-02-20T06:25:14;100599.53;;;9.92;100.00
7333;BME280;3707;43.618;25.342;2023-02-20T06:27:40;100578.03;;;9.94;100.00
7333;BME280;3707;43.618;25.342;2023-02-20T06:30:08;100579.75;;;9.95;98.67
7333;BME280;3707;43.618;25.342;2023-02-20T06:32:35;100586.56;;;9.90;96.65
7333;BME280;3707;43.618;25.342;2023-02-20T06:35:02;100598.44;;;10.15;95.10
7333;BME280;3707;43.618;25.342;2023-02-20T06:37:30;100617.78;;;10.29;93.60
7333;BME280;3707;43.618;25.342;2023-02-20T06:39:57;100604.16;;;10.36;91.82
7333;BME280;3707;43.618;25.342;2023-02-20T06:42:24;100618.59;;;10.63;90.52
7333;BME280;3707;43.618;25.342;2023-02-20T06:44:51;100632.59;;;10.71;88.09
7333;BME280;3707;43.618;25.342;2023-02-20T06:47:18;100636.97;;;10.72;88.10
7333;BME280;3707;43.618;25.342;2023-02-20T06:49:44;100644.28;;;10.89;86.00
7333;BME280;3707;43.618;25.342;2023-02-20T06:52:12;100631.38;;;10.91;85.49
7333;BME280;3707;43.618;25.342;2023-02-20T06:54:40;100643.94;;;11.12;85.59
7333;BME280;3707;43.618;25.342;2023-02-20T06:57:07;100629.94;;;11.05;83.26
7333;BME280;3707;43.618;25.342;2023-02-20T06:59:34;100658.03;;;11.24;81.82
7333;BME280;3707;43.618;25.342;2023-02-20T07:02:06;100657.19;;;11.25;81.23
7333;BME280;3707;43.618;25.342;2023-02-20T07:04:36;100569.56;;;10.73;80.35
7333;BME280;3707;43.618;25.342;2023-02-20T07:07:02;100667.63;;;11.27;81.00
7333;BME280;3707;43.618;25.342;2023-02-20T07:09:29;100665.09;;;11.31;79.74
7333;BME280;3707;43.618;25.342;2023-02-20T07:11:57;100673.59;;;11.24;79.97
7333;BME280;3707;43.618;25.342;2023-02-20T07:14:24;100675.59;;;10.97;80.93
7333;BME280;3707;43.618;25.342;2023-02-20T07:16:51;100660.91;;;10.98;81.37
7333;BME280;3707;43.618;25.342;2023-02-20T07:19:18;100672.66;;;10.82;81.25
7333;BME280;3707;43.618;25.342;2023-02-20T07:21:45;100692.25;;;11.07;81.17
7333;BME280;3707;43.618;25.342;2023-02-20T07:24:12;100699.38;;;11.15;81.12
7333;BME280;3707;43.618;25.342;2023-02-20T07:26:39;100698.69;;;11.24;79.45
7333;BME280;3707;43.618;25.342;2023-02-20T07:29:07;100709.94;;;11.24;80.03
7333;BME280;3707;43.618;25.342;2023-02-20T07:31:34;100712.06;;;11.40;79.35
7333;BME280;3707;43.618;25.342;2023-02-20T07:34:01;100701.72;;;11.43;77.95
7333;BME280;3707;43.618;25.342;2023-02-20T07:36:28;100722.94;;;11.65;76.31
7333;BME280;3707;43.618;25.342;2023-02-20T07:38:56;100715.75;;;11.52;76.75
7333;BME280;3707;43.618;25.342;2023-02-20T07:41:23;100706.75;;;11.36;78.15
7333;BME280;3707;43.618;25.342;2023-02-20T07:43:50;100719.38;;;11.60;76.39
7333;BME280;3707;43.618;25.342;2023-02-20T07:46:18;100720.84;;;11.49;76.98
7333;BME280;3707;43.618;25.342;2023-02-20T07:48:45;100714.41;;;11.30;77.70
7333;BME280;3707;43.618;25.342;2023-02-20T07:51:12;100700.44;;;11.25;79.02
7333;BME280;3707;43.618;25.342;2023-02-20T07:53:39;100737.72;;;11.67;76.70
7333;BME280;3707;43.618;25.342;2023-02-20T07:56:06;100732.84;;;11.42;75.95
7333;BME280;3707;43.618;25.342;2023-02-20T07:58:32;100731.91;;;11.38;76.55
7333;BME280;3707;43.618;25.342;2023-02-20T08:00:59;100723.69;;;11.20;77.11
7333;BME280;3707;43.618;25.342;2023-02-20T08:03:27;100741.91;;;11.22;77.04
7333;BME280;3707;43.618;25.342;2023-02-20T08:05:54;100736.47;;;11.11;79.09
7333;BME280;3707;43.618;25.342;2023-02-20T08:08:21;100724.09;;;11.00;78.35
7333;BME280;3707;43.618;25.342;2023-02-20T08:10:50;100737.03;;;10.98;78.47
7333;BME280;3707;43.618;25.342;2023-02-20T08:13:17;100748.56;;;11.11;78.08
7333;BME280;3707;43.618;25.342;2023-02-20T08:15:44;100727.13;;;10.82;78.09
7333;BME280;3707;43.618;25.342;2023-02-20T08:18:12;100731.59;;;10.89;78.01
7333;BME280;3707;43.618;25.342;2023-02-20T08:20:40;100759.69;;;11.05;78.10
7333;BME280;3707;43.618;25.342;2023-02-20T08:23:15;100755.47;;;11.09;77.65
7333;BME280;3707;43.618;25.342;2023-02-20T08:25:42;100754.97;;;11.25;76.60
7333;BME280;3707;43.618;25.342;2023-02-20T08:28:09;100743.44;;;10.78;77.60
7333;BME280;3707;43.618;25.342;2023-02-20T08:30:36;100772.09;;;11.18;77.38
7333;BME280;3707;43.618;25.342;2023-02-20T08:33:03;100769.66;;;11.24;76.10
7333;BME280;3707;43.618;25.342;2023-02-20T08:35:30;100765.38;;;11.26;76.06
7333;BME280;3707;43.618;25.342;2023-02-20T08:38:00;100789.44;;;11.57;75.23
7333;BME280;3707;43.618;25.342;2023-02-20T08:40:27;100794.88;;;11.67;73.38
7333;BME280;3707;43.618;25.342;2023-02-20T08:42:53;100781.38;;;11.44;72.88
7333;BME280;3707;43.618;25.342;2023-02-20T08:45:20;100804.78;;;11.46;72.65
7333;BME280;3707;43.618;25.342;2023-02-20T08:47:48;100808.06;;;11.39;73.82
7333;BME280;3707;43.618;25.342;2023-02-20T08:50:16;100812.44;;;11.41;74.00
7333;BME280;3707;43.618;25.342;2023-02-20T08:52:43;100787.28;;;11.37;73.73
7333;BME280;3707;43.618;25.342;2023-02-20T08:55:11;100770.72;;;11.32;72.76
7333;BME280;3707;43.618;25.342;2023-02-20T08:57:41;100824.06;;;11.57;71.71
7333;BME280;3707;43.618;25.342;2023-02-20T09:00:09;100824.41;;;11.33;72.41
7333;BME280;3707;43.618;25.342;2023-02-20T09:02:36;100817.94;;;11.54;72.25
7333;BME280;3707;43.618;25.342;2023-02-20T09:05:04;100805.06;;;11.60;70.90
7333;BME280;3707;43.618;25.342;2023-02-20T09:07:30;100824.69;;;11.83;69.60
7333;BME280;3707;43.618;25.342;2023-02-20T09:09:57;100831.56;;;11.43;71.45
7333;BME280;3707;43.618;25.342;2023-02-20T09:12:25;100827.44;;;11.53;71.47
7333;BME280;3707;43.618;25.342;2023-02-20T09:14:52;100821.25;;;11.84;70.00
7333;BME280;3707;43.618;25.342;2023-02-20T09:17:19;100790.19;;;11.53;69.59
7333;BME280;3707;43.618;25.342;2023-02-20T09:19:46;100820.28;;;11.79;69.64
7333;BME280;3707;43.618;25.342;2023-02-20T09:22:13;100827.81;;;12.07;68.93
7333;BME280;3707;43.618;25.342;2023-02-20T09:24:40;100822.38;;;12.38;67.06
7333;BME280;3707;43.618;25.342;2023-02-20T09:27:07;100826.00;;;12.03;66.97
7333;BME280;3707;43.618;25.342;2023-02-20T09:29:35;100819.50;;;12.23;67.79
7333;BME280;3707;43.618;25.342;2023-02-20T09:32:07;100829.53;;;12.05;67.80
7333;BME280;3707;43.618;25.342;2023-02-20T09:34:34;100830.06;;;12.32;67.07
7333;BME280;3707;43.618;25.342;2023-02-20T09:37:01;100834.00;;;12.12;67.19
7333;BME280;3707;43.618;25.342;2023-02-20T09:39:27;100822.50;;;12.03;67.39
7333;BME280;3707;43.618;25.342;2023-02-20T09:42:09;100829.44;;;12.02;67.30
7333;BME280;3707;43.618;25.342;2023-02-20T09:44:47;100822.03;;;11.80;69.35
7333;BME280;3707;43.618;25.342;2023-02-20T09:47:26;100794.19;;;11.73;68.90
7333;BME280;3707;43.618;25.342;2023-02-20T09:49:59;100820.72;;;12.00;68.40
7333;BME280;3707;43.618;25.342;2023-02-20T09:52:28;100804.22;;;12.41;67.23
7333;BME280;3707;43.618;25.342;2023-02-20T09:55:01;100810.75;;;12.65;65.58
7333;BME280;3707;43.618;25.342;2023-02-20T09:57:29;100813.16;;;12.56;64.88
7333;BME280;3707;43.618;25.342;2023-02-20T10:00:02;100853.41;;;12.74;64.93
7333;BME280;3707;43.618;25.342;2023-02-20T10:02:32;100810.66;;;12.59;64.14
7333;BME280;3707;43.618;25.342;2023-02-20T10:05:02;100823.66;;;12.60;64.05
7333;BME280;3707;43.618;25.342;2023-02-20T10:07:32;100819.84;;;12.41;64.22
7333;BME280;3707;43.618;25.342;2023-02-20T10:10:04;100830.00;;;12.29;64.31
7333;BME280;3707;43.618;25.342;2023-02-20T10:12:50;100827.63;;;12.41;64.45
7333;BME280;3707;43.618;25.342;2023-02-20T10:15:24;100824.66;;;12.67;63.43
7333;BME280;3707;43.618;25.342;2023-02-20T10:17:59;100820.66;;;12.85;63.44
7333;BME280;3707;43.618;25.342;2023-02-20T10:20:36;100818.88;;;12.83;65.07
7333;BME280;3707;43.618;25.342;2023-02-20T10:23:13;100802.53;;;12.43;65.81
7333;BME280;3707;43.618;25.342;2023-02-20T10:25:43;100813.78;;;12.42;67.46
7333;BME280;3707;43.618;25.342;2023-02-20T10:28:13;100790.31;;;12.39;67.46
7333;BME280;3707;43.618;25.342;2023-02-20T10:30:45;100809.91;;;12.66;67.07
7333;BME280;3707;43.618;25.342;2023-02-20T10:33:22;100791.78;;;12.25;68.07
7333;BME280;3707;43.618;25.342;2023-02-20T10:35:53;100804.16;;;12.38;68.89
7333;BME280;3707;43.618;25.342;2023-02-20T10:38:25;100809.16;;;12.26;68.57
7333;BME280;3707;43.618;25.342;2023-02-20T10:40:58;100784.47;;;12.06;69.38
7333;BME280;3707;43.618;25.342;2023-02-20T10:43:32;100799.41;;;12.16;70.06
7333;BME280;3707;43.618;25.342;2023-02-20T10:46:06;100798.22;;;12.02;70.74
7333;BME280;3707;43.618;25.342;2023-02-20T10:48:37;100763.06;;;11.76;70.69
7333;BME280;3707;43.618;25.342;2023-02-20T10:51:08;100794.06;;;12.10;72.55
7333;BME280;3707;43.618;25.342;2023-02-20T10:53:41;100784.59;;;12.57;100.00
7333;BME280;3707;43.618;25.342;2023-02-20T10:56:15;100776.69;;;12.53;74.53
7333;BME280;3707;43.618;25.342;2023-02-20T10:58:46;100792.44;;;12.59;73.28
7333;BME280;3707;43.618;25.342;2023-02-20T11:01:19;100792.16;;;12.43;70.79
7333;BME280;3707;43.618;25.342;2023-02-20T11:03:51;100800.47;;;12.27;70.87
7333;BME280;3707;43.618;25.342;2023-02-20T11:06:25;100794.97;;;12.11;71.89
7333;BME280;3707;43.618;25.342;2023-02-20T11:08:54;100790.81;;;12.20;71.72
7333;BME280;3707;43.618;25.342;2023-02-20T11:11:26;100762.72;;;12.03;70.76
7333;BME280;3707;43.618;25.342;2023-02-20T11:13:57;100770.22;;;12.31;70.98
7333;BME280;3707;43.618;25.342;2023-02-20T11:16:29;100760.97;;;12.47;69.53
7333;BME280;3707;43.618;25.342;2023-02-20T11:19:04;100796.56;;;12.49;69.72
7333;BME280;3707;43.618;25.342;2023-02-20T11:21:38;100795.47;;;12.36;70.43
7333;BME280;3707;43.618;25.342;2023-02-20T11:24:20;100791.31;;;12.45;69.66
7333;BME280;3707;43.618;25.342;2023-02-20T11:26:48;100792.41;;;12.57;69.51
7333;BME280;3707;43.618;25.342;2023-02-20T11:29:18;100782.47;;;12.36;69.18
7333;BME280;3707;43.618;25.342;2023-02-20T11:31:47;100787.00;;;12.47;69.10
7333;BME280;3707;43.618;25.342;2023-02-20T11:34:17;100770.75;;;12.58;67.89
7333;BME280;3707;43.618;25.342;2023-02-20T11:36:47;100777.25;;;12.83;65.92
7333;BME280;3707;43.618;25.342;2023-02-20T11:39:23;100781.97;;;13.05;64.95
7333;BME280;3707;43.618;25.342;2023-02-20T11:42:04;100775.44;;;13.31;63.73
7333;BME280;3707;43.618;25.342;2023-02-20T11:44:32;100770.16;;;13.25;61.65
7333;BME280;3707;43.618;25.342;2023-02-20T11:47:27;100767.78;;;13.40;61.69
7333;BME280;3707;43.618;25.342;2023-02-20T11:50:12;100763.38;;;13.38;61.48
7333;BME280;3707;43.618;25.342;2023-02-20T11:52:54;100777.56;;;13.55;61.20
7333;BME280;3707;43.618;25.342;2023-02-20T11:55:23;100768.31;;;13.20;61.02
7333;BME280;3707;43.618;25.342;2023-02-20T11:57:50;100775.19;;;13.16;63.15
7333;BME280;3707;43.618;25.342;2023-02-20T12:00:19;100751.47;;;12.98;60.83
7333;BME280;3707;43.618;25.342;2023-02-20T12:02:54;100764.63;;;13.07;60.71
7333;BME280;3707;43.618;25.342;2023-02-20T12:05:21;100754.94;;;12.97;60.90
7333;BME280;3707;43.618;25.342;2023-02-20T12:08:01;100772.34;;;13.01;60.17
7333;BME280;3707;43.618;25.342;2023-02-20T12:10:34;100773.34;;;13.09;60.26
7333;BME280;3707;43.618;25.342;2023-02-20T12:13:04;100773.09;;;12.94;57.38
7333;BME280;3707;43.618;25.342;2023-02-20T12:15:32;100771.34;;;12.93;55.95
7333;BME280;3707;43.618;25.342;2023-02-20T12:18:14;100684.59;;;12.41;53.88
7333;BME280;3707;43.618;25.342;2023-02-20T12:20:47;100781.03;;;13.03;53.67
7333;BME280;3707;43.618;25.342;2023-02-20T12:23:22;100767.03;;;12.95;53.58
7333;BME280;3707;43.618;25.342;2023-02-20T12:26:03;100783.94;;;13.18;52.77
7333;BME280;3707;43.618;25.342;2023-02-20T12:28:39;100792.78;;;13.31;52.87
7333;BME280;3707;43.618;25.342;2023-02-20T12:31:19;100775.47;;;13.33;52.72
7333;BME280;3707;43.618;25.342;2023-02-20T12:33:58;100781.84;;;13.52;53.03
7333;BME280;3707;43.618;25.342;2023-02-20T12:36:34;100780.16;;;13.57;52.49
7333;BME280;3707;43.618;25.342;2023-02-20T12:39:06;100779.28;;;13.55;52.14
7333;BME280;3707;43.618;25.342;2023-02-20T12:41:56;100773.28;;;13.62;51.95
7333;BME280;3707;43.618;25.342;2023-02-20T12:44:34;100776.22;;;13.86;52.55
7333;BME280;3707;43.618;25.342;2023-02-20T12:47:15;100780.09;;;14.20;51.70
7333;BME280;3707;43.618;25.342;2023-02-20T12:50:01;100772.44;;;14.33;51.29
7333;BME280;3707;43.618;25.342;2023-02-20T12:52:48;100778.22;;;14.07;52.57
7333;BME280;3707;43.618;25.342;2023-02-20T12:55:22;100773.78;;;14.00;52.29
7333;BME280;3707;43.618;25.342;2023-02-20T12:57:58;100769.28;;;13.86;52.98
7333;BME280;3707;43.618;25.342;2023-02-20T13:00:32;100767.31;;;13.70;52.70
7333;BME280;3707;43.618;25.342;2023-02-20T13:03:07;100770.50;;;13.48;53.09
7333;BME280;3707;43.618;25.342;2023-02-20T13:05:41;100767.59;;;13.27;53.92
7333;BME280;3707;43.618;25.342;2023-02-20T13:08:12;100771.28;;;13.43;53.46
7333;BME280;3707;43.618;25.342;2023-02-20T13:10:47;100766.44;;;13.70;53.37
7333;BME280;3707;43.618;25.342;2023-02-20T13:13:16;100762.44;;;13.95;52.69
7333;BME280;3707;43.618;25.342;2023-02-20T13:15:51;100718.00;;;13.84;58.22
7333;BME280;3707;43.618;25.342;2023-02-20T13:18:25;100758.09;;;13.97;54.68
7333;BME280;3707;43.618;25.342;2023-02-20T13:20:57;100752.59;;;13.74;53.54
7333;BME280;3707;43.618;25.342;2023-02-20T13:23:29;100750.47;;;13.46;53.93
7333;BME280;3707;43.618;25.342;2023-02-20T13:25:57;100758.44;;;13.55;54.33